Time;durP1;ratioP1;P1;durP2;ratioP2;P2;SDS_P1;SDS_P2;PMS_P1;PMS_P2;Temp;Humidity;BMP_temperature;BMP_pressure;BME280_temperature;BME280_humidity;BME280_pressure;Samples;Min_cycle;Max_cycle;Signal;HPM_P1;HPM_P2
2024/02/09 00:00:17;;;;;;;334.85;314.70;;;12.70;99.90;;;;;;5030866;28;20041;-73
2024/02/09 00:02:44;;;;;;;361.38;339.80;;;12.70;99.90;;;;;;5031047;28;20033;-72
2024/02/09 00:05:11;;;;;;;364.55;342.52;;;12.70;99.90;;;;;;5031523;28;20034;-72
2024/02/09 00:07:37;;;;;;;367.25;344.83;;;12.70;99.90;;;;;;5033139;28;20084;-73
2024/02/09 00:10:04;;;;;;;360.63;338.23;;;12.70;99.90;;;;;;5030729;28;20060;-72
2024/02/09 00:12:30;;;;;;;354.83;333.45;;;12.70;99.90;;;;;;5030503;28;20057;-72
2024/02/09 00:14:59;;;;;;;328.98;308.73;;;12.70;99.90;;;;;;5032996;28;20033;-72
2024/02/09 00:17:25;;;;;;;366.60;343.67;;;12.70;99.90;;;;;;5032433;28;20486;-72
2024/02/09 00:19:51;;;;;;;324.02;303.85;;;12.70;99.90;;;;;;5032683;28;20064;-72
2024/02/09 00:22:17;;;;;;;353.40;331.60;;;12.80;99.90;;;;;;5031485;28;20471;-72
2024/02/09 00:24:43;;;;;;;295.23;276.98;;;12.80;99.90;;;;;;5031667;28;20036;-72
2024/02/09 00:27:11;;;;;;;322.13;302.48;;;12.80;99.90;;;;;;5032501;28;20063;-72
2024/02/09 00:29:37;;;;;;;330.85;310.92;;;12.90;99.90;;;;;;5032044;28;20075;-72
2024/02/09 00:32:07;;;;;;;272.95;256.42;;;12.90;99.90;;;;;;5031546;28;20056;-72
2024/02/09 00:34:34;;;;;;;306.75;287.73;;;12.90;99.90;;;;;;5030563;28;20041;-72
2024/02/09 00:37:01;;;;;;;328.85;308.75;;;12.90;99.90;;;;;;5031144;28;20048;-72
2024/02/09 00:39:33;;;;;;;359.05;337.38;;;12.90;99.90;;;;;;5032165;28;20033;-72
2024/02/09 00:42:01;;;;;;;432.73;405.05;;;12.90;99.90;;;;;;5031596;28;20038;-72
2024/02/09 00:44:28;;;;;;;354.45;332.33;;;12.90;99.90;;;;;;5031755;28;20049;-72
2024/02/09 00:46:55;;;;;;;320.65;301.42;;;13.00;99.90;;;;;;5031025;28;20048;-72
2024/02/09 00:49:22;;;;;;;302.42;284.13;;;12.90;99.90;;;;;;5031967;28;20037;-72
2024/02/09 00:51:52;;;;;;;328.63;308.88;;;12.90;99.90;;;;;;5031093;28;20057;-72
2024/02/09 00:54:20;;;;;;;359.95;337.73;;;12.90;99.90;;;;;;5035187;28;20115;-72
2024/02/09 00:56:47;;;;;;;351.63;329.88;;;12.90;99.90;;;;;;5037247;28;20466;-72
2024/02/09 00:59:13;;;;;;;387.65;363.08;;;12.90;99.90;;;;;;5030792;28;20474;-72
2024/02/09 01:01:39;;;;;;;430.13;401.60;;;12.90;99.90;;;;;;5031387;28;20041;-72
2024/02/09 01:04:07;;;;;;;380.48;356.05;;;13.00;99.90;;;;;;5031771;28;20371;-73
2024/02/09 01:06:34;;;;;;;359.48;336.73;;;13.00;99.90;;;;;;5031357;28;20573;-72
2024/02/09 01:09:00;;;;;;;267.27;251.63;;;13.00;99.90;;;;;;5031276;28;20048;-72
2024/02/09 01:11:30;;;;;;;313.75;294.70;;;13.00;99.90;;;;;;5030461;28;20046;-72
2024/02/09 02:46:54;;;;;;;193.02;181.43;;;12.80;99.90;;;;;;5035362;28;20029;-71
2024/02/09 03:05:47;;;;;;;125.65;118.25;;;12.70;99.90;;;;;;5035037;28;20036;-71
2024/02/09 03:08:13;;;;;;;157.25;147.73;;;12.70;99.90;;;;;;5025224;28;20034;-71
2024/02/09 03:10:39;;;;;;;105.45;99.18;;;12.60;99.90;;;;;;5032659;28;20029;-71
2024/02/09 03:13:08;;;;;;;131.77;124.40;;;12.70;99.90;;;;;;5032059;28;20056;-71
2024/02/09 03:15:34;;;;;;;129.85;122.40;;;12.60;99.90;;;;;;5030805;28;20048;-71
2024/02/09 03:18:04;;;;;;;194.40;183.70;;;12.70;99.90;;;;;;5031497;28;20030;-71
2024/02/09 03:20:34;;;;;;;193.73;182.60;;;12.60;99.90;;;;;;5029194;28;20045;-71
2024/02/09 03:23:01;;;;;;;176.90;166.07;;;12.60;99.90;;;;;;5032228;28;20034;-71
2024/02/09 03:25:28;;;;;;;234.05;220.18;;;12.60;99.90;;;;;;5014014;28;20037;-71
2024/02/09 03:27:54;;;;;;;253.63;238.10;;;12.60;99.90;;;;;;5032406;28;20056;-71
2024/02/09 03:30:22;;;;;;;222.77;209.48;;;12.60;99.90;;;;;;5031166;28;20037;-71
2024/02/09 03:32:50;;;;;;;233.68;220.10;;;12.60;99.90;;;;;;5031300;28;20030;-71
2024/02/09 03:35:16;;;;;;;245.23;230.15;;;12.50;99.90;;;;;;5014618;28;20060;-72
2024/02/09 03:37:44;;;;;;;227.43;213.85;;;12.50;99.90;;;;;;5031807;28;20045;-71
2024/02/09 03:40:14;;;;;;;262.70;246.85;;;12.50;99.90;;;;;;5032506;28;20033;-71
2024/02/09 03:42:41;;;;;;;205.23;192.75;;;12.60;99.90;;;;;;5033360;28;20034;-71
2024/02/09 03:45:07;;;;;;;151.48;142.40;;;12.50;99.90;;;;;;5032716;28;20045;-72
2024/02/09 03:47:33;;;;;;;249.38;234.15;;;12.50;99.90;;;;;;5016922;28;20403;-71
2024/02/09 03:49:59;;;;;;;164.05;153.77;;;12.50;99.90;;;;;;5032169;28;20064;-72
2024/02/09 03:52:27;;;;;;;161.73;151.82;;;12.50;99.90;;;;;;5032905;28;20052;-71
2024/02/09 03:54:54;;;;;;;173.38;162.55;;;12.50;99.90;;;;;;5032552;28;20042;-71
2024/02/09 03:57:21;;;;;;;172.57;162.45;;;12.50;99.90;;;;;;5031751;28;20040;-71
2024/02/09 03:59:47;;;;;;;166.15;155.85;;;12.50;99.90;;;;;;5031294;28;20041;-71
2024/02/09 04:02:13;;;;;;;163.23;153.27;;;12.50;99.90;;;;;;5031937;28;20033;-71
2024/02/09 04:04:39;;;;;;;206.77;193.88;;;12.60;99.90;;;;;;5032943;28;20033;-71
2024/02/09 04:07:06;;;;;;;219.43;206.02;;;12.60;99.90;;;;;;5032735;28;20033;-71
2024/02/09 04:09:33;;;;;;;195.70;183.27;;;12.60;99.90;;;;;;5015505;28;20025;-71
2024/02/09 04:11:59;;;;;;;168.52;157.45;;;12.60;99.90;;;;;;5032391;28;20053;-72
2024/02/09 04:14:27;;;;;;;163.68;152.90;;;12.60;99.90;;;;;;5032908;28;20034;-71
2024/02/09 04:16:54;;;;;;;225.50;212.30;;;12.60;99.90;;;;;;5031883;28;20029;-71
2024/02/09 04:19:20;;;;;;;336.77;316.42;;;12.60;99.90;;;;;;5030698;28;20038;-71
2024/02/09 04:21:49;;;;;;;311.60;292.45;;;12.60;99.90;;;;;;5030837;28;20037;-71
2024/02/09 04:24:18;;;;;;;274.65;257.55;;;12.60;99.90;;;;;;5032423;28;20037;-72
2024/02/09 04:26:44;;;;;;;362.13;340.33;;;12.60;99.90;;;;;;5031524;28;20041;-71
2024/02/09 04:29:11;;;;;;;375.83;352.33;;;12.60;99.90;;;;;;5032351;28;20029;-71
2024/02/09 04:31:41;;;;;;;351.13;329.50;;;12.60;99.90;;;;;;5030692;28;20037;-72
2024/02/09 04:34:09;;;;;;;249.13;234.75;;;12.60;99.90;;;;;;5032044;28;20512;-71
2024/02/09 04:36:37;;;;;;;296.73;278.55;;;12.50;99.90;;;;;;5031601;28;20033;-71
2024/02/09 04:39:10;;;;;;;242.43;227.02;;;12.50;99.90;;;;;;5031226;28;20021;-71
2024/02/09 04:41:54;;;;;;;232.98;218.02;;;12.40;99.90;;;;;;5031685;28;20052;-72
2024/02/09 04:44:23;;;;;;;273.70;256.83;;;12.40;99.90;;;;;;5026114;28;20045;-71
2024/02/09 04:46:49;;;;;;;265.77;249.75;;;12.40;99.90;;;;;;5027475;28;20050;-71
2024/02/09 04:49:15;;;;;;;293.45;275.60;;;12.30;99.90;;;;;;5019642;28;20041;-71
2024/02/09 04:51:42;;;;;;;232.60;218.35;;;12.40;99.90;;;;;;5024474;28;20502;-71
2024/02/09 04:54:08;;;;;;;221.98;208.25;;;12.30;99.90;;;;;;5022108;28;20041;-71
2024/02/09 04:56:34;;;;;;;246.90;232.82;;;12.30;99.90;;;;;;5030744;28;20041;-71
2024/02/09 04:59:10;;;;;;;276.42;260.17;;;12.30;99.90;;;;;;5032095;28;20093;-72
2024/02/09 05:01:38;;;;;;;207.30;194.88;;;12.30;99.90;;;;;;5029666;28;20486;-72
2024/02/09 05:04:07;;;;;;;192.00;180.32;;;12.30;99.90;;;;;;5030288;28;20029;-72
2024/02/09 05:06:34;;;;;;;158.50;148.88;;;12.30;99.90;;;;;;5030721;28;20036;-72
2024/02/09 05:09:00;;;;;;;184.20;173.48;;;12.30;99.90;;;;;;5031912;28;20037;-71
2024/02/09 05:11:29;;;;;;;173.18;162.23;;;12.30;99.90;;;;;;5030364;28;20029;-72
2024/02/09 05:13:59;;;;;;;250.10;234.57;;;12.30;99.90;;;;;;5030098;28;20033;-71
2024/02/09 05:16:27;;;;;;;272.45;256.10;;;12.30;99.90;;;;;;5030291;28;20034;-72
2024/02/09 05:18:53;;;;;;;246.25;231.38;;;12.20;99.90;;;;;;5031808;28;20052;-72
2024/02/09 05:21:19;;;;;;;245.40;230.57;;;12.20;99.90;;;;;;5030418;28;20040;-72
2024/02/09 05:23:45;;;;;;;239.80;225.07;;;12.20;99.90;;;;;;5015168;28;20048;-72
2024/02/09 05:26:12;;;;;;;221.05;207.48;;;12.20;99.90;;;;;;5031594;28;20049;-71
2024/02/09 05:28:39;;;;;;;196.35;184.20;;;12.20;99.90;;;;;;5029675;28;20050;-72
2024/02/09 05:31:06;;;;;;;169.77;159.00;;;12.20;99.90;;;;;;5031388;28;20034;-72
2024/02/09 05:33:34;;;;;;;204.90;192.45;;;12.10;99.90;;;;;;5035110;28;20054;-72
2024/02/09 05:36:01;;;;;;;188.63;176.88;;;12.10;99.90;;;;;;5035648;28;20049;-71
2024/02/09 05:38:27;;;;;;;164.15;153.93;;;12.10;99.90;;;;;;5036001;28;20037;-71
2024/02/09 05:40:54;;;;;;;171.30;160.85;;;12.10;99.90;;;;;;5035270;28;20045;-72
2024/02/09 05:43:21;;;;;;;183.10;171.30;;;12.10;99.90;;;;;;5035755;28;20033;-71
2024/02/09 05:45:48;;;;;;;158.63;148.07;;;12.10;99.90;;;;;;5034209;28;20092;-72
2024/02/09 05:48:17;;;;;;;157.38;147.27;;;12.10;99.90;;;;;;5035694;28;20064;-71
2024/02/09 05:50:43;;;;;;;177.52;166.00;;;12.10;99.90;;;;;;5034040;28;20393;-72
2024/02/09 05:53:09;;;;;;;165.40;154.48;;;12.10;99.90;;;;;;5018429;28;20042;-71
2024/02/09 05:55:38;;;;;;;188.98;176.60;;;12.10;99.90;;;;;;5034791;28;20032;-72
2024/02/09 05:58:04;;;;;;;152.10;141.93;;;12.10;99.90;;;;;;5035235;28;20050;-72
2024/02/09 06:00:30;;;;;;;149.07;138.88;;;12.10;99.90;;;;;;5033675;28;20490;-71
2024/02/09 06:02:56;;;;;;;161.50;151.05;;;12.10;99.90;;;;;;5035844;28;20367;-72
2024/02/09 06:05:22;;;;;;;154.80;144.38;;;12.10;99.90;;;;;;5035051;28;20041;-72
2024/02/09 06:07:49;;;;;;;159.88;149.32;;;12.00;99.90;;;;;;5035637;28;20367;-72
2024/02/09 06:10:15;;;;;;;147.80;137.68;;;12.00;99.90;;;;;;5033918;28;20037;-72
2024/02/09 06:12:43;;;;;;;165.15;154.35;;;12.00;99.90;;;;;;5034014;28;20402;-71
2024/02/09 06:15:10;;;;;;;143.13;133.20;;;12.00;99.90;;;;;;5034260;28;20462;-72
2024/02/09 06:17:38;;;;;;;126.97;118.45;;;12.00;99.90;;;;;;5033786;28;20048;-71
2024/02/09 06:20:05;;;;;;;141.18;131.15;;;12.00;99.90;;;;;;5035270;28;20474;-71
2024/02/09 06:22:31;;;;;;;129.35;120.78;;;12.00;99.90;;;;;;5034908;28;20525;-71
2024/02/09 06:24:57;;;;;;;129.00;119.95;;;12.00;99.90;;;;;;5034663;28;20033;-71
2024/02/09 06:27:25;;;;;;;168.38;156.90;;;12.00;99.90;;;;;;5033944;28;20054;-71
2024/02/09 06:29:52;;;;;;;212.80;199.18;;;12.00;99.90;;;;;;5017599;28;20040;-71
2024/02/09 06:32:19;;;;;;;183.43;171.20;;;12.00;99.90;;;;;;5034303;28;20049;-71
2024/02/09 06:34:45;;;;;;;229.23;214.60;;;11.90;99.90;;;;;;5033286;28;20045;-71
2024/02/09 06:37:11;;;;;;;141.98;132.60;;;11.90;99.90;;;;;;5037091;28;20034;-71
2024/02/09 06:39:37;;;;;;;184.98;171.68;;;11.90;99.90;;;;;;5034181;28;20038;-71
2024/02/09 06:42:03;;;;;;;188.57;176.13;;;11.90;99.90;;;;;;5033934;28;20056;-71
2024/02/09 06:44:32;;;;;;;208.95;195.18;;;11.90;99.90;;;;;;5034943;28;20049;-71
2024/02/09 06:46:59;;;;;;;212.15;197.25;;;11.90;99.90;;;;;;5033876;28;20042;-71
2024/02/09 06:49:28;;;;;;;228.38;213.02;;;11.90;99.90;;;;;;5033996;28;20029;-71
2024/02/09 06:51:54;;;;;;;230.70;215.57;;;11.90;99.90;;;;;;5033051;28;20406;-71
2024/02/09 06:54:23;;;;;;;312.30;291.58;;;11.90;99.90;;;;;;5034235;28;20034;-71
2024/02/09 06:56:53;;;;;;;369.10;344.05;;;11.80;99.90;;;;;;5032862;28;20037;-71
2024/02/09 06:59:22;;;;;;;285.33;266.40;;;11.90;99.90;;;;;;5034322;28;20037;-71
2024/02/09 07:01:48;;;;;;;1999.90;999.90;;;11.80;99.90;;;;;;5032835;28;20272;-71
2024/02/09 07:04:18;;;;;;;1999.90;999.90;;;11.80;99.90;;;;;;5033423;28;20033;-71
2024/02/09 07:06:48;;;;;;;1593.18;837.10;;;11.80;99.90;;;;;;5034047;28;20030;-71
2024/02/09 07:09:20;;;;;;;402.63;372.30;;;11.80;99.90;;;;;;5033085;28;20763;-71
2024/02/09 07:11:47;;;;;;;309.23;289.05;;;11.80;99.90;;;;;;5032664;28;20042;-71
2024/02/09 07:14:14;;;;;;;399.73;371.20;;;11.80;99.90;;;;;;5032538;28;20056;-71
2024/02/09 07:16:41;;;;;;;425.48;393.63;;;11.80;99.90;;;;;;5032982;28;20417;-71
2024/02/09 07:19:10;;;;;;;461.67;427.38;;;11.80;99.90;;;;;;5017498;28;20037;-71
2024/02/09 07:21:37;;;;;;;556.95;517.38;;;11.80;99.90;;;;;;5033847;28;20025;-71
2024/02/09 07:24:04;;;;;;;577.47;536.03;;;11.80;99.90;;;;;;5033412;28;20470;-71
2024/02/09 07:26:31;;;;;;;1999.90;999.90;;;11.80;99.90;;;;;;5033827;28;20026;-71
2024/02/09 07:28:57;;;;;;;1624.72;865.88;;;11.80;99.90;;;;;;5033380;28;20029;-71
2024/02/09 07:31:24;;;;;;;1261.80;743.20;;;11.70;99.90;;;;;;5032318;28;20508;-71
2024/02/09 07:33:50;;;;;;;786.78;517.78;;;11.70;99.90;;;;;;5034002;28;20044;-71
2024/02/09 07:36:17;;;;;;;349.13;325.33;;;11.70;99.90;;;;;;5014031;28;20026;-71
2024/02/09 07:38:43;;;;;;;778.60;509.75;;;11.80;99.90;;;;;;5012693;28;20037;-71
2024/02/09 07:41:12;;;;;;;368.95;343.30;;;11.80;99.90;;;;;;5013837;28;20038;-71
2024/02/09 07:43:38;;;;;;;333.35;310.67;;;11.80;99.90;;;;;;5012848;28;20037;-71
2024/02/09 07:46:04;;;;;;;337.10;313.88;;;11.70;99.90;;;;;;5023033;28;20033;-72
2024/02/09 07:48:31;;;;;;;1999.90;999.90;;;11.70;99.90;;;;;;5022669;28;20045;-71
2024/02/09 07:50:57;;;;;;;1999.90;999.90;;;11.80;99.90;;;;;;5045279;28;20398;-71
2024/02/09 07:53:24;;;;;;;756.35;489.15;;;11.80;99.90;;;;;;5030931;28;20413;-71
2024/02/09 07:55:50;;;;;;;725.78;460.77;;;11.80;99.90;;;;;;5032356;28;20067;-71
2024/02/09 07:58:19;;;;;;;277.70;259.50;;;11.80;99.90;;;;;;5033571;28;20466;-71
2024/02/09 08:00:45;;;;;;;296.83;277.55;;;11.80;99.90;;;;;;5031806;28;20447;-71
2024/02/09 08:03:11;;;;;;;737.05;471.17;;;11.80;99.90;;;;;;5033264;28;20038;-71
2024/02/09 08:05:38;;;;;;;322.25;300.23;;;11.90;99.90;;;;;;5033255;28;20384;-72
2024/02/09 08:08:04;;;;;;;1168.45;657.03;;;11.80;99.90;;;;;;5032607;28;20038;-72
2024/02/09 08:10:32;;;;;;;309.05;288.08;;;11.90;99.90;;;;;;5031131;28;20038;-72
2024/02/09 08:12:58;;;;;;;805.65;535.20;;;11.80;99.90;;;;;;5031657;28;20524;-72
2024/02/09 08:15:24;;;;;;;723.63;458.38;;;11.80;99.90;;;;;;5029202;28;20472;-70
2024/02/09 08:17:52;;;;;;;765.10;497.38;;;11.90;99.90;;;;;;5025662;28;20025;-70
2024/02/09 08:20:19;;;;;;;468.77;436.75;;;11.90;99.90;;;;;;5032792;28;20041;-72
2024/02/09 08:22:46;;;;;;;487.75;453.75;;;11.90;99.90;;;;;;5032593;28;20033;-71
2024/02/09 08:25:12;;;;;;;1999.90;999.90;;;12.00;99.90;;;;;;5032159;28;20438;-72
2024/02/09 08:27:39;;;;;;;1999.90;999.90;;;12.00;99.90;;;;;;5031776;28;20045;-71
2024/02/09 08:30:07;;;;;;;1999.90;999.90;;;12.00;99.90;;;;;;5032431;28;20409;-72
2024/02/09 08:32:34;;;;;;;1999.90;999.90;;;12.00;99.90;;;;;;5031345;28;20037;-71
2024/02/09 08:35:00;;;;;;;1999.90;999.90;;;12.00;99.90;;;;;;5024662;28;20033;-71
2024/02/09 08:37:29;;;;;;;1678.05;914.35;;;12.10;99.90;;;;;;5031898;28;20041;-71
2024/02/09 08:39:58;;;;;;;1298.13;775.67;;;12.10;99.90;;;;;;5032053;28;20068;-71
2024/02/09 08:42:26;;;;;;;1999.90;999.90;;;12.20;99.90;;;;;;5032143;28;20513;-71
2024/02/09 08:44:56;;;;;;;1999.90;999.90;;;12.20;99.90;;;;;;5014529;28;20033;-71
2024/02/09 08:47:22;;;;;;;330.13;306.65;;;12.20;99.90;;;;;;5031268;28;20033;-70
2024/02/09 08:49:49;;;;;;;1999.90;999.90;;;12.20;99.90;;;;;;5031822;28;20040;-69
2024/02/09 08:52:16;;;;;;;1999.90;999.90;;;12.20;99.90;;;;;;5004470;28;20049;-71
2024/02/09 08:54:45;;;;;;;1999.90;999.90;;;12.30;99.90;;;;;;5060739;28;20761;-71
2024/02/09 08:57:12;;;;;;;1999.90;999.90;;;12.30;99.90;;;;;;5031095;28;20033;-71
2024/02/09 08:59:40;;;;;;;483.85;450.75;;;12.40;99.90;;;;;;5030378;28;20048;-70
2024/02/09 09:02:07;;;;;;;232.13;216.23;;;12.30;99.90;;;;;;5029168;28;20040;-71
2024/02/09 09:04:33;;;;;;;216.57;201.98;;;12.30;99.90;;;;;;5029163;28;20029;-71
2024/02/09 09:07:00;;;;;;;290.58;270.80;;;12.30;99.90;;;;;;5024102;28;20082;-71
2024/02/09 09:09:26;;;;;;;253.70;236.25;;;12.40;99.90;;;;;;5018671;28;20033;-71
2024/02/09 09:11:56;;;;;;;298.05;277.52;;;12.30;99.90;;;;;;5031690;28;20514;-71
2024/02/09 09:14:22;;;;;;;302.20;281.83;;;12.40;99.90;;;;;;5031467;28;20045;-71
2024/02/09 09:16:48;;;;;;;493.92;459.50;;;12.40;99.90;;;;;;5030138;28;20041;-71
2024/02/09 09:19:15;;;;;;;436.30;406.05;;;12.40;99.90;;;;;;5029858;28;20056;-71
2024/02/09 09:21:42;;;;;;;314.45;293.88;;;12.40;99.90;;;;;;5010882;28;20041;-71
2024/02/09 09:24:08;;;;;;;295.13;275.30;;;12.40;99.90;;;;;;5028507;28;20037;-71
2024/02/09 09:26:34;;;;;;;287.48;267.83;;;12.50;99.90;;;;;;5031142;28;20053;-71
2024/02/09 09:29:00;;;;;;;306.70;286.42;;;12.60;99.90;;;;;;5026360;28;20414;-71
2024/02/09 09:31:27;;;;;;;329.55;307.25;;;12.60;99.90;;;;;;5029855;28;20041;-71
2024/02/09 09:33:55;;;;;;;289.30;270.00;;;12.60;99.90;;;;;;5013982;28;20493;-71
2024/02/09 09:36:21;;;;;;;301.25;280.95;;;12.60;99.90;;;;;;5021491;28;20040;-71
2024/02/09 09:38:47;;;;;;;314.85;293.92;;;12.70;99.90;;;;;;5030301;28;20037;-71
2024/02/09 09:41:13;;;;;;;289.60;270.52;;;12.70;99.90;;;;;;5025087;28;20117;-71
2024/02/09 09:43:40;;;;;;;330.90;308.65;;;12.70;99.90;;;;;;5043199;28;20053;-71
2024/02/09 09:46:09;;;;;;;383.65;357.55;;;12.80;99.90;;;;;;5024174;28;20034;-71
2024/02/09 09:48:37;;;;;;;407.45;379.88;;;12.80;99.90;;;;;;5029914;28;20056;-71
2024/02/09 09:51:07;;;;;;;402.73;375.75;;;12.80;99.90;;;;;;5030938;28;20048;-71
2024/02/09 09:53:44;;;;;;;421.58;391.30;;;12.80;99.90;;;;;;5030290;28;20487;-71
2024/02/09 09:56:10;;;;;;;419.15;389.20;;;12.80;99.90;;;;;;5013707;28;20042;-71
2024/02/09 09:58:36;;;;;;;387.70;360.92;;;12.80;99.90;;;;;;5031295;28;20033;-71
2024/02/09 10:01:08;;;;;;;458.27;425.25;;;12.90;99.90;;;;;;5027148;28;20041;-71
2024/02/09 10:03:38;;;;;;;385.48;358.25;;;12.90;99.90;;;;;;5030049;28;20026;-71
2024/02/09 10:06:04;;;;;;;372.45;347.58;;;13.00;99.90;;;;;;5031557;28;20033;-71
2024/02/09 10:08:31;;;;;;;418.67;389.00;;;13.00;99.90;;;;;;5030810;28;20049;-71
2024/02/09 10:10:57;;;;;;;406.20;377.17;;;13.00;99.90;;;;;;5011204;28;20036;-71
2024/02/09 10:13:24;;;;;;;355.58;330.30;;;13.00;99.90;;;;;;5029477;28;20452;-71
2024/02/09 10:15:51;;;;;;;377.52;350.42;;;13.00;99.90;;;;;;5028085;28;20513;-71
2024/02/09 10:18:18;;;;;;;351.55;326.00;;;13.00;99.90;;;;;;5032254;28;20032;-68
2024/02/09 10:20:47;;;;;;;385.73;358.83;;;13.00;99.90;;;;;;5034786;28;20044;-71
2024/02/09 10:23:19;;;;;;;459.48;426.25;;;13.10;99.90;;;;;;5033845;28;20519;-71
2024/02/09 10:25:46;;;;;;;446.83;414.33;;;13.10;99.90;;;;;;5032877;28;20469;-71
2024/02/09 10:28:12;;;;;;;346.33;322.08;;;13.10;99.90;;;;;;5033799;28;20040;-71
2024/02/09 10:30:38;;;;;;;325.40;302.60;;;13.10;99.90;;;;;;5016107;28;20521;-71
2024/02/09 10:33:10;;;;;;;339.55;316.08;;;13.20;99.90;;;;;;5034285;28;20040;-71
2024/02/09 10:35:36;;;;;;;338.10;315.20;;;13.20;99.90;;;;;;5034611;28;20026;-71
2024/02/09 10:38:02;;;;;;;285.95;266.27;;;13.20;99.90;;;;;;5030355;28;20029;-71
2024/02/09 10:40:29;;;;;;;287.17;267.13;;;13.30;99.90;;;;;;5028333;28;20041;-72
2024/02/09 10:42:55;;;;;;;299.42;279.50;;;13.30;99.90;;;;;;5032778;28;20045;-72
2024/02/09 10:45:22;;;;;;;289.55;270.02;;;13.30;99.90;;;;;;5033583;28;20048;-72
2024/02/09 10:47:54;;;;;;;313.55;292.23;;;13.30;99.90;;;;;;5016887;28;20025;-72
2024/02/09 10:50:20;;;;;;;297.65;277.75;;;13.40;99.90;;;;;;5033371;28;20053;-72
2024/02/09 10:52:50;;;;;;;296.08;275.45;;;13.40;99.90;;;;;;5033822;28;20045;-72
2024/02/09 10:55:22;;;;;;;323.92;301.55;;;13.40;99.90;;;;;;5033160;28;20049;-72
2024/02/09 10:57:51;;;;;;;307.15;286.95;;;13.50;99.90;;;;;;5034064;28;20478;-72
2024/02/09 11:00:18;;;;;;;270.98;253.02;;;13.50;99.90;;;;;;5032219;28;20045;-72
2024/02/09 11:02:44;;;;;;;311.85;291.73;;;13.50;99.90;;;;;;5031920;28;20037;-72
2024/02/09 11:05:17;;;;;;;343.15;319.15;;;13.60;99.90;;;;;;5032552;28;20383;-72
2024/02/09 11:07:47;;;;;;;340.40;317.27;;;13.60;99.90;;;;;;5033059;28;20029;-72
2024/02/09 11:10:16;;;;;;;333.35;309.88;;;13.60;99.90;;;;;;5016540;28;20022;-73
2024/02/09 11:12:43;;;;;;;314.27;292.88;;;13.70;99.90;;;;;;5034265;28;20694;-72
2024/02/09 11:15:15;;;;;;;282.52;263.15;;;13.70;99.90;;;;;;5031439;28;20029;-72
2024/02/09 11:17:47;;;;;;;360.02;336.15;;;13.70;99.90;;;;;;5033014;28;20044;-72
2024/02/09 11:20:14;;;;;;;342.00;319.17;;;13.70;99.90;;;;;;5033822;28;20029;-72
2024/02/09 11:22:49;;;;;;;315.45;295.17;;;13.70;99.90;;;;;;5032303;28;20037;-72
2024/02/09 11:25:16;;;;;;;248.82;232.75;;;13.70;99.90;;;;;;5033638;28;20398;-72
2024/02/09 11:27:51;;;;;;;363.85;339.15;;;13.70;99.90;;;;;;5031782;28;20034;-72
2024/02/09 11:30:20;;;;;;;238.77;224.38;;;13.60;99.90;;;;;;5032234;28;20406;-72
2024/02/09 11:32:48;;;;;;;426.80;399.02;;;13.60;99.90;;;;;;5015645;28;20041;-72
2024/02/09 11:35:17;;;;;;;277.17;259.90;;;13.60;99.90;;;;;;5030993;28;20033;-72
2024/02/09 11:37:44;;;;;;;176.85;165.73;;;13.60;99.90;;;;;;5013902;28;20029;-72
2024/02/09 11:40:15;;;;;;;178.70;167.38;;;13.50;99.90;;;;;;5019152;28;20049;-73
2024/02/09 11:42:42;;;;;;;181.35;169.70;;;13.50;99.90;;;;;;5013597;28;20079;-72
2024/02/09 11:45:11;;;;;;;213.02;199.38;;;13.50;99.90;;;;;;5012533;28;20038;-72
2024/02/09 11:47:38;;;;;;;192.85;181.15;;;13.50;99.90;;;;;;5013800;28;20041;-72
2024/02/09 11:50:06;;;;;;;239.77;224.90;;;13.50;99.90;;;;;;5013527;28;20418;-72
2024/02/09 11:52:33;;;;;;;263.33;247.52;;;13.50;99.90;;;;;;5031636;28;20037;-72
2024/02/09 11:55:01;;;;;;;266.80;250.52;;;13.50;99.90;;;;;;5031072;28;20099;-72
2024/02/09 11:57:28;;;;;;;221.65;208.05;;;13.60;99.90;;;;;;5030460;28;20041;-72
2024/02/09 11:59:54;;;;;;;256.13;240.52;;;13.60;99.90;;;;;;5030264;28;20040;-72
2024/02/09 12:02:20;;;;;;;222.13;208.50;;;13.60;99.90;;;;;;5014710;28;20033;-72
2024/02/09 12:04:47;;;;;;;265.25;249.57;;;13.50;99.90;;;;;;5031049;28;20053;-72
2024/02/09 12:07:14;;;;;;;257.10;241.23;;;13.60;99.90;;;;;;5032696;28;20038;-72
2024/02/09 12:09:40;;;;;;;254.60;238.73;;;13.60;99.90;;;;;;5031322;28;20037;-72
2024/02/09 12:12:07;;;;;;;229.93;216.55;;;13.60;99.90;;;;;;5032159;28;20029;-72
2024/02/09 12:14:33;;;;;;;256.67;241.05;;;13.60;99.90;;;;;;5032065;28;20041;-72
2024/02/09 12:16:59;;;;;;;267.50;251.95;;;13.70;99.90;;;;;;5032071;28;20041;-72
2024/02/09 12:19:25;;;;;;;249.35;234.20;;;13.80;99.90;;;;;;5030919;28;20034;-72
2024/02/09 12:21:51;;;;;;;244.98;230.48;;;13.80;99.90;;;;;;5031388;28;20580;-72
2024/02/09 12:24:17;;;;;;;249.63;235.07;;;13.90;99.90;;;;;;5030885;28;20033;-72
2024/02/09 12:26:44;;;;;;;242.15;228.15;;;14.00;99.90;;;;;;5031146;28;20056;-72
2024/02/09 12:29:12;;;;;;;326.88;307.58;;;14.10;99.90;;;;;;5032612;28;20097;-72
2024/02/09 12:31:41;;;;;;;325.60;305.95;;;14.10;99.90;;;;;;5030209;28;20044;-72
2024/02/09 12:34:08;;;;;;;296.95;280.00;;;14.10;99.90;;;;;;5031223;28;20029;-72
2024/02/09 12:36:35;;;;;;;330.70;310.80;;;14.20;99.90;;;;;;5029659;28;20034;-72
2024/02/09 12:39:07;;;;;;;312.23;293.67;;;14.20;99.90;;;;;;5031012;28;20025;-72
2024/02/09 12:41:36;;;;;;;328.42;308.70;;;14.20;99.90;;;;;;5029698;28;20037;-72
2024/02/09 12:44:07;;;;;;;292.92;274.98;;;14.30;99.90;;;;;;5038364;28;20037;-72
2024/02/09 12:46:33;;;;;;;315.25;296.55;;;14.20;99.90;;;;;;5039514;28;20034;-72
2024/02/09 12:49:00;;;;;;;335.02;315.08;;;14.30;99.90;;;;;;5031684;28;20049;-72
2024/02/09 12:51:28;;;;;;;315.50;296.90;;;14.30;99.90;;;;;;5031518;28;20042;-72
2024/02/09 12:53:54;;;;;;;337.40;317.02;;;14.30;99.90;;;;;;5030774;28;20371;-72
2024/02/09 12:56:20;;;;;;;301.00;283.20;;;14.30;99.90;;;;;;5030308;28;20041;-72
2024/02/09 12:58:47;;;;;;;283.90;267.38;;;14.30;99.90;;;;;;5031696;28;20068;-72
2024/02/09 13:01:14;;;;;;;295.67;278.50;;;14.30;99.90;;;;;;5030223;28;20029;-72
2024/02/09 13:03:40;;;;;;;269.40;254.00;;;14.30;99.90;;;;;;5031925;28;20583;-72
2024/02/09 13:06:07;;;;;;;296.27;278.75;;;14.30;99.90;;;;;;5031589;28;20037;-72
2024/02/09 13:08:33;;;;;;;289.77;272.98;;;14.30;99.90;;;;;;5029733;28;20056;-72
2024/02/09 13:10:59;;;;;;;330.40;309.98;;;14.40;99.90;;;;;;5031544;28;20040;-72
2024/02/09 13:13:26;;;;;;;300.20;282.45;;;14.40;99.90;;;;;;5029829;28;20029;-72
2024/02/09 13:15:52;;;;;;;350.75;329.17;;;14.30;99.90;;;;;;5029535;28;20454;-72
2024/02/09 13:18:18;;;;;;;338.98;318.25;;;14.30;99.90;;;;;;5030053;28;20044;-72
2024/02/09 13:20:45;;;;;;;345.65;324.52;;;14.40;99.90;;;;;;5030941;28;20041;-72
2024/02/09 13:23:12;;;;;;;343.52;323.13;;;14.40;99.90;;;;;;5030032;28;20034;-72
2024/02/09 13:25:40;;;;;;;313.65;295.23;;;14.50;99.90;;;;;;5030348;28;20467;-72
2024/02/09 13:28:07;;;;;;;288.52;271.85;;;14.60;99.90;;;;;;5032258;28;20502;-72
2024/02/09 13:30:34;;;;;;;371.42;347.63;;;14.70;99.90;;;;;;5030634;28;20034;-72
2024/02/09 13:33:00;;;;;;;393.95;368.52;;;14.80;99.90;;;;;;5031106;28;20474;-72
2024/02/09 13:35:26;;;;;;;1999.90;999.90;;;14.90;99.90;;;;;;5031240;28;20042;-72
2024/02/09 13:37:54;;;;;;;1999.90;999.90;;;14.90;99.90;;;;;;5031251;28;20053;-72
2024/02/09 13:40:20;;;;;;;1999.90;999.90;;;15.00;99.90;;;;;;5031007;28;20052;-73
2024/02/09 13:42:50;;;;;;;1999.90;999.90;;;15.10;99.90;;;;;;5029962;28;20029;-72
2024/02/09 13:45:17;;;;;;;1999.90;999.90;;;15.20;99.90;;;;;;5028912;28;20371;-72
2024/02/09 13:47:43;;;;;;;1999.90;999.90;;;15.20;99.90;;;;;;5030323;28;20037;-72
2024/02/09 13:50:11;;;;;;;1999.90;999.90;;;15.20;99.90;;;;;;5030925;28;20045;-72
2024/02/09 13:52:43;;;;;;;1999.90;999.90;;;15.20;99.90;;;;;;5032449;28;20052;-72
2024/02/09 13:55:13;;;;;;;1999.90;999.90;;;15.20;99.90;;;;;;5061894;28;20050;-72